EUS37SM LFBD-LEMD
Flight info
| Callsign | EUS37SM |
|---|---|
| Flight time | 0h 59m |
| Altitude | 33000 |
| Route | VAVIX DCT NETUK N857 VASUM DCT BANEV |
| Aircraft | B738/M-SDE2E3FGHIRWXY/LB1 |
Departure
| Time | 2026-05-05 19:56 |
|---|---|
| Airport | Bordeaux–Mérignac Airport (LFBD) |
Arrival
| Time | 2026-05-05 20:55 |
|---|---|
| Airport | Adolfo Suárez Madrid–Barajas Airport (LEMD) |
| Time | Latitude | Longitude | Altitude | Speed | Heading |
|---|---|---|---|---|---|
| 2026-05-05 19:45 | 44.83043 | -0.70558 | 142 ft | 0 kts | 138° |
| 2026-05-05 19:50 | 44.83043 | -0.70559 | 142 ft | 1 kts | 138° |
| 2026-05-05 19:50 | 44.83062 | -0.70581 | 169 ft | 4 kts | 146° |
| 2026-05-05 19:50 | 44.83085 | -0.70599 | 169 ft | 4 kts | 160° |
| 2026-05-05 19:50 | 44.83110 | -0.70605 | 169 ft | 4 kts | 200° |
| 2026-05-05 19:51 | 44.83120 | -0.70598 | 169 ft | 0 kts | 227° |
| 2026-05-05 19:52 | 44.83114 | -0.70606 | 169 ft | 3 kts | 227° |
| 2026-05-05 19:52 | 44.83093 | -0.70639 | 169 ft | 6 kts | 227° |
| 2026-05-05 19:52 | 44.83060 | -0.70688 | 169 ft | 8 kts | 227° |
| 2026-05-05 19:53 | 44.83014 | -0.70754 | 169 ft | 11 kts | 222° |
| 2026-05-05 19:53 | 44.82944 | -0.70812 | 170 ft | 12 kts | 197° |
| 2026-05-05 19:53 | 44.82900 | -0.70745 | 170 ft | 12 kts | 108° |
| 2026-05-05 19:53 | 44.82869 | -0.70596 | 171 ft | 18 kts | 107° |
| 2026-05-05 19:54 | 44.82832 | -0.70418 | 171 ft | 19 kts | 106° |
| 2026-05-05 19:54 | 44.82795 | -0.70243 | 172 ft | 18 kts | 107° |
| 2026-05-05 19:54 | 44.82759 | -0.70074 | 172 ft | 18 kts | 106° |
| 2026-05-05 19:54 | 44.82726 | -0.69960 | 172 ft | 11 kts | 140° |
| 2026-05-05 19:55 | 44.82653 | -0.69958 | 173 ft | 11 kts | 196° |
| 2026-05-05 19:55 | 44.82567 | -0.70004 | 173 ft | 14 kts | 227° |
| 2026-05-05 19:55 | 44.82561 | -0.70094 | 174 ft | 16 kts | 284° |
| 2026-05-05 19:55 | 44.82663 | -0.70574 | 171 ft | 93 kts | 287° |
| 2026-05-05 19:56 | 44.82915 | -0.71778 | 262 ft | 154 kts | 285° |
| 2026-05-05 19:56 | 44.83230 | -0.73299 | 1080 ft | 161 kts | 281° |
| 2026-05-05 19:56 | 44.83061 | -0.74778 | 2177 ft | 162 kts | 239° |
| 2026-05-05 19:56 | 44.82049 | -0.75780 | 2572 ft | 204 kts | 197° |
| 2026-05-05 19:57 | 44.80521 | -0.75585 | 2810 ft | 239 kts | 163° |
| 2026-05-05 19:57 | 44.78890 | -0.74878 | 3459 ft | 246 kts | 171° |
| 2026-05-05 19:57 | 44.77216 | -0.74458 | 4428 ft | 247 kts | 173° |
| 2026-05-05 19:57 | 44.75500 | -0.74054 | 5411 ft | 249 kts | 172° |
| 2026-05-05 19:58 | 44.73795 | -0.73649 | 6371 ft | 252 kts | 172° |
| 2026-05-05 19:58 | 44.72052 | -0.73230 | 7263 ft | 255 kts | 172° |
| 2026-05-05 19:58 | 44.70279 | -0.72801 | 8181 ft | 258 kts | 172° |
| 2026-05-05 19:58 | 44.68497 | -0.72480 | 9084 ft | 261 kts | 178° |
| 2026-05-05 19:59 | 44.66669 | -0.72325 | 10001 ft | 264 kts | 179° |
| 2026-05-05 19:59 | 44.64839 | -0.72204 | 10816 ft | 267 kts | 179° |
| 2026-05-05 19:59 | 44.62961 | -0.72081 | 11591 ft | 274 kts | 179° |
| 2026-05-05 19:59 | 44.60958 | -0.71946 | 11873 ft | 301 kts | 179° |
| 2026-05-05 20:00 | 44.58793 | -0.71794 | 12092 ft | 327 kts | 179° |
| 2026-05-05 20:00 | 44.56438 | -0.71621 | 12463 ft | 346 kts | 178° |
| 2026-05-05 20:00 | 44.54010 | -0.71436 | 13207 ft | 352 kts | 178° |
| 2026-05-05 20:00 | 44.51542 | -0.71244 | 14063 ft | 355 kts | 178° |
| 2026-05-05 20:01 | 44.49067 | -0.71051 | 14845 ft | 358 kts | 178° |
| 2026-05-05 20:01 | 44.46567 | -0.70856 | 15599 ft | 362 kts | 178° |
| 2026-05-05 20:01 | 44.44039 | -0.70682 | 16358 ft | 365 kts | 181° |
| 2026-05-05 20:01 | 44.41528 | -0.71062 | 17126 ft | 366 kts | 195° |
| 2026-05-05 20:02 | 44.39145 | -0.72250 | 18029 ft | 364 kts | 205° |
| 2026-05-05 20:02 | 44.36825 | -0.73690 | 18703 ft | 368 kts | 205° |
| 2026-05-05 20:02 | 44.34458 | -0.75165 | 19330 ft | 372 kts | 205° |
| 2026-05-05 20:02 | 44.32084 | -0.76637 | 20005 ft | 375 kts | 204° |
| 2026-05-05 20:03 | 44.29690 | -0.78111 | 20626 ft | 378 kts | 204° |
| 2026-05-05 20:03 | 44.27269 | -0.79593 | 21277 ft | 381 kts | 204° |
| 2026-05-05 20:03 | 44.24841 | -0.81071 | 21932 ft | 383 kts | 204° |
| 2026-05-05 20:03 | 44.22377 | -0.82566 | 22574 ft | 386 kts | 204° |
| 2026-05-05 20:04 | 44.19906 | -0.84061 | 23234 ft | 388 kts | 204° |
| 2026-05-05 20:04 | 44.17425 | -0.85559 | 23801 ft | 390 kts | 204° |
| 2026-05-05 20:04 | 44.14922 | -0.87069 | 24258 ft | 394 kts | 204° |
| 2026-05-05 20:04 | 44.12396 | -0.88590 | 24711 ft | 398 kts | 204° |
| 2026-05-05 20:05 | 44.09848 | -0.90123 | 25174 ft | 401 kts | 204° |
| 2026-05-05 20:05 | 44.07278 | -0.91669 | 25624 ft | 404 kts | 204° |
| 2026-05-05 20:05 | 44.04687 | -0.93225 | 26072 ft | 407 kts | 204° |
| 2026-05-05 20:05 | 44.02078 | -0.94791 | 26504 ft | 410 kts | 204° |
| 2026-05-05 20:06 | 43.99455 | -0.96362 | 27002 ft | 411 kts | 204° |
| 2026-05-05 20:06 | 43.96821 | -0.97940 | 27440 ft | 414 kts | 204° |
| 2026-05-05 20:06 | 43.94167 | -0.99529 | 27842 ft | 417 kts | 204° |
| 2026-05-05 20:06 | 43.91506 | -1.01119 | 28375 ft | 416 kts | 204° |
| 2026-05-05 20:07 | 43.88854 | -1.02703 | 29003 ft | 414 kts | 204° |
| 2026-05-05 20:07 | 43.86212 | -1.04278 | 29610 ft | 413 kts | 204° |
| 2026-05-05 20:07 | 43.83578 | -1.05848 | 30124 ft | 413 kts | 204° |
| 2026-05-05 20:07 | 43.80940 | -1.07418 | 30533 ft | 412 kts | 205° |
| 2026-05-05 20:08 | 43.78310 | -1.08982 | 31000 ft | 411 kts | 205° |
| 2026-05-05 20:08 | 43.75694 | -1.10537 | 31409 ft | 411 kts | 205° |
| 2026-05-05 20:08 | 43.73050 | -1.12108 | 31795 ft | 412 kts | 205° |
| 2026-05-05 20:08 | 43.70421 | -1.13667 | 32200 ft | 411 kts | 205° |
| 2026-05-05 20:09 | 43.67791 | -1.15226 | 32593 ft | 412 kts | 205° |
| 2026-05-05 20:09 | 43.65143 | -1.16794 | 32835 ft | 416 kts | 205° |
| 2026-05-05 20:09 | 43.62475 | -1.18373 | 32995 ft | 420 kts | 205° |
| 2026-05-05 20:10 | 43.57007 | -1.21606 | 33006 ft | 434 kts | 206° |
| 2026-05-05 20:10 | 43.51386 | -1.24919 | 33016 ft | 443 kts | 206° |
| 2026-05-05 20:11 | 43.45714 | -1.28252 | 33018 ft | 444 kts | 206° |
| 2026-05-05 20:11 | 43.40036 | -1.31582 | 32998 ft | 440 kts | 206° |
| 2026-05-05 20:12 | 43.34475 | -1.34836 | 33015 ft | 433 kts | 206° |
| 2026-05-05 20:12 | 43.28914 | -1.38089 | 33017 ft | 436 kts | 206° |
| 2026-05-05 20:13 | 43.23324 | -1.41352 | 33025 ft | 437 kts | 206° |
| 2026-05-05 20:13 | 43.17777 | -1.44583 | 33023 ft | 437 kts | 206° |
| 2026-05-05 20:14 | 43.12161 | -1.47867 | 33019 ft | 437 kts | 207° |
| 2026-05-05 20:14 | 43.06691 | -1.51436 | 33014 ft | 437 kts | 209° |
| 2026-05-05 20:15 | 43.01250 | -1.55105 | 33019 ft | 436 kts | 209° |
| 2026-05-05 20:15 | 42.95803 | -1.58732 | 33013 ft | 435 kts | 210° |
| 2026-05-05 20:16 | 42.90333 | -1.62334 | 33011 ft | 434 kts | 210° |
| 2026-05-05 20:16 | 42.84909 | -1.65883 | 32989 ft | 433 kts | 210° |
| 2026-05-05 20:17 | 42.79464 | -1.69437 | 32988 ft | 432 kts | 210° |
| 2026-05-05 20:17 | 42.74044 | -1.72970 | 32997 ft | 432 kts | 210° |
| 2026-05-05 20:18 | 42.68625 | -1.76496 | 32998 ft | 432 kts | 210° |
| 2026-05-05 20:18 | 42.63204 | -1.80016 | 33001 ft | 432 kts | 210° |
| 2026-05-05 20:19 | 42.57783 | -1.83529 | 32993 ft | 431 kts | 210° |
| 2026-05-05 20:19 | 42.52367 | -1.87031 | 33005 ft | 431 kts | 210° |
| 2026-05-05 20:20 | 42.46953 | -1.90527 | 33020 ft | 431 kts | 210° |
| 2026-05-05 20:20 | 42.41538 | -1.94016 | 33009 ft | 431 kts | 210° |
| 2026-05-05 20:21 | 42.36122 | -1.97499 | 33013 ft | 431 kts | 210° |
| 2026-05-05 20:21 | 42.30707 | -2.00974 | 33022 ft | 430 kts | 210° |
| 2026-05-05 20:22 | 42.25297 | -2.04440 | 33014 ft | 431 kts | 210° |
| 2026-05-05 20:22 | 42.19885 | -2.07900 | 33022 ft | 430 kts | 210° |
| 2026-05-05 20:23 | 42.14480 | -2.11350 | 33008 ft | 430 kts | 211° |
| 2026-05-05 20:23 | 42.09131 | -2.14755 | 33019 ft | 428 kts | 211° |
| 2026-05-05 20:24 | 42.03697 | -2.18212 | 33016 ft | 428 kts | 211° |
| 2026-05-05 20:24 | 41.98315 | -2.21627 | 33024 ft | 428 kts | 211° |
| 2026-05-05 20:25 | 41.92938 | -2.25033 | 33019 ft | 427 kts | 211° |
| 2026-05-05 20:25 | 41.87718 | -2.28321 | 32999 ft | 403 kts | 212° |
| 2026-05-05 20:25 | 41.85188 | -2.29908 | 32960 ft | 391 kts | 212° |
| 2026-05-05 20:26 | 41.82743 | -2.31449 | 32672 ft | 384 kts | 212° |
| 2026-05-05 20:26 | 41.80342 | -2.32963 | 32286 ft | 380 kts | 213° |
| 2026-05-05 20:26 | 41.77969 | -2.34461 | 31942 ft | 375 kts | 213° |
| 2026-05-05 20:26 | 41.75615 | -2.35947 | 31562 ft | 373 kts | 213° |
| 2026-05-05 20:27 | 41.73313 | -2.37397 | 31179 ft | 369 kts | 214° |
| 2026-05-05 20:27 | 41.70991 | -2.38857 | 30824 ft | 366 kts | 214° |
| 2026-05-05 20:27 | 41.68683 | -2.40308 | 30461 ft | 363 kts | 214° |
| 2026-05-05 20:27 | 41.66401 | -2.41740 | 30098 ft | 361 kts | 214° |
| 2026-05-05 20:28 | 41.64137 | -2.43160 | 29677 ft | 358 kts | 214° |
| 2026-05-05 20:28 | 41.61896 | -2.44564 | 29298 ft | 354 kts | 214° |
| 2026-05-05 20:28 | 41.59695 | -2.45941 | 28913 ft | 350 kts | 214° |
| 2026-05-05 20:28 | 41.57494 | -2.47318 | 28533 ft | 347 kts | 213° |
| 2026-05-05 20:29 | 41.55320 | -2.48676 | 28178 ft | 343 kts | 213° |
| 2026-05-05 20:29 | 41.53164 | -2.50024 | 27733 ft | 341 kts | 214° |
| 2026-05-05 20:29 | 41.51033 | -2.51353 | 27435 ft | 336 kts | 214° |
| 2026-05-05 20:29 | 41.48924 | -2.52668 | 27083 ft | 334 kts | 214° |
| 2026-05-05 20:30 | 41.46831 | -2.53974 | 26719 ft | 331 kts | 213° |
| 2026-05-05 20:30 | 41.44752 | -2.55270 | 26371 ft | 329 kts | 213° |
| 2026-05-05 20:30 | 41.42686 | -2.56557 | 26024 ft | 327 kts | 213° |
| 2026-05-05 20:30 | 41.40626 | -2.57840 | 25677 ft | 327 kts | 213° |
| 2026-05-05 20:31 | 41.38565 | -2.59123 | 25329 ft | 327 kts | 213° |
| 2026-05-05 20:31 | 41.36493 | -2.60411 | 24996 ft | 332 kts | 212° |
| 2026-05-05 20:31 | 41.34357 | -2.61743 | 24616 ft | 343 kts | 212° |
| 2026-05-05 20:31 | 41.32079 | -2.62802 | 24218 ft | 357 kts | 195° |
| 2026-05-05 20:32 | 41.29541 | -2.62872 | 23773 ft | 368 kts | 185° |
| 2026-05-05 20:32 | 41.26981 | -2.62641 | 23318 ft | 369 kts | 184° |
| 2026-05-05 20:32 | 41.24428 | -2.62367 | 22910 ft | 367 kts | 183° |
| 2026-05-05 20:32 | 41.21892 | -2.62096 | 22522 ft | 364 kts | 183° |
| 2026-05-05 20:33 | 41.19363 | -2.61839 | 22156 ft | 361 kts | 183° |
| 2026-05-05 20:33 | 41.16873 | -2.61600 | 21799 ft | 357 kts | 183° |
| 2026-05-05 20:33 | 41.14404 | -2.61374 | 21425 ft | 354 kts | 182° |
| 2026-05-05 20:33 | 41.11956 | -2.61153 | 21077 ft | 351 kts | 182° |
| 2026-05-05 20:34 | 41.09530 | -2.60936 | 20697 ft | 348 kts | 182° |
| 2026-05-05 20:34 | 41.07124 | -2.60722 | 20374 ft | 345 kts | 182° |
| 2026-05-05 20:34 | 41.04732 | -2.60510 | 20030 ft | 343 kts | 182° |
| 2026-05-05 20:34 | 41.02355 | -2.60300 | 19684 ft | 341 kts | 181° |
| 2026-05-05 20:35 | 40.99995 | -2.60091 | 19352 ft | 339 kts | 181° |
| 2026-05-05 20:35 | 40.97644 | -2.59882 | 19008 ft | 338 kts | 180° |
| 2026-05-05 20:35 | 40.95319 | -2.59677 | 18635 ft | 337 kts | 180° |
| 2026-05-05 20:35 | 40.92985 | -2.59470 | 18289 ft | 336 kts | 180° |
| 2026-05-05 20:36 | 40.90658 | -2.59263 | 17898 ft | 334 kts | 180° |
| 2026-05-05 20:36 | 40.88331 | -2.59057 | 17518 ft | 332 kts | 180° |
| 2026-05-05 20:36 | 40.86036 | -2.58853 | 17187 ft | 329 kts | 180° |
| 2026-05-05 20:36 | 40.83789 | -2.58979 | 16824 ft | 320 kts | 199° |
| 2026-05-05 20:37 | 40.81848 | -2.60149 | 16531 ft | 309 kts | 219° |
| 2026-05-05 20:37 | 40.80749 | -2.61390 | 16313 ft | 304 kts | 227° |
| 2026-05-05 20:37 | 40.78771 | -2.64029 | 15871 ft | 301 kts | 229° |
| 2026-05-05 20:37 | 40.77347 | -2.65974 | 15550 ft | 299 kts | 229° |
| 2026-05-05 20:38 | 40.75901 | -2.67942 | 15228 ft | 298 kts | 229° |
| 2026-05-05 20:38 | 40.74457 | -2.69893 | 14898 ft | 297 kts | 228° |
| 2026-05-05 20:38 | 40.73016 | -2.71828 | 14644 ft | 293 kts | 228° |
| 2026-05-05 20:38 | 40.71608 | -2.73711 | 14523 ft | 285 kts | 228° |
| 2026-05-05 20:39 | 40.70224 | -2.75559 | 14382 ft | 277 kts | 228° |
| 2026-05-05 20:39 | 40.68892 | -2.77332 | 14264 ft | 270 kts | 228° |
| 2026-05-05 20:39 | 40.67589 | -2.79064 | 14149 ft | 263 kts | 228° |
| 2026-05-05 20:39 | 40.66320 | -2.80750 | 14039 ft | 256 kts | 228° |
| 2026-05-05 20:40 | 40.65012 | -2.82305 | 13854 ft | 255 kts | 218° |
| 2026-05-05 20:40 | 40.63514 | -2.83566 | 13646 ft | 257 kts | 214° |
| 2026-05-05 20:40 | 40.61958 | -2.84779 | 13409 ft | 259 kts | 213° |
| 2026-05-05 20:40 | 40.60399 | -2.85989 | 13173 ft | 261 kts | 214° |
| 2026-05-05 20:41 | 40.58843 | -2.87207 | 12931 ft | 259 kts | 214° |
| 2026-05-05 20:41 | 40.57832 | -2.88005 | 12784 ft | 258 kts | 214° |
| 2026-05-05 20:41 | 40.56298 | -2.89222 | 12544 ft | 257 kts | 214° |
| 2026-05-05 20:41 | 40.54260 | -2.90848 | 12249 ft | 255 kts | 214° |
| 2026-05-05 20:42 | 40.53259 | -2.91649 | 12094 ft | 254 kts | 214° |
| 2026-05-05 20:42 | 40.51741 | -2.92865 | 11875 ft | 253 kts | 214° |
| 2026-05-05 20:42 | 40.50244 | -2.94067 | 11655 ft | 252 kts | 214° |
| 2026-05-05 20:42 | 40.48748 | -2.95268 | 11425 ft | 251 kts | 214° |
| 2026-05-05 20:43 | 40.47269 | -2.96455 | 11212 ft | 250 kts | 214° |
| 2026-05-05 20:43 | 40.45778 | -2.97651 | 10991 ft | 250 kts | 214° |
| 2026-05-05 20:43 | 40.44298 | -2.98838 | 10771 ft | 249 kts | 214° |
| 2026-05-05 20:43 | 40.42824 | -3.00019 | 10549 ft | 248 kts | 214° |
| 2026-05-05 20:44 | 40.41351 | -3.01199 | 10329 ft | 248 kts | 214° |
| 2026-05-05 20:44 | 40.39890 | -3.02369 | 10111 ft | 248 kts | 214° |
| 2026-05-05 20:44 | 40.38413 | -3.03551 | 9894 ft | 247 kts | 214° |
| 2026-05-05 20:44 | 40.36956 | -3.04716 | 9662 ft | 247 kts | 214° |
| 2026-05-05 20:45 | 40.34031 | -3.07055 | 9195 ft | 245 kts | 214° |
| 2026-05-05 20:45 | 40.32577 | -3.08217 | 8973 ft | 245 kts | 214° |
| 2026-05-05 20:45 | 40.31127 | -3.09374 | 8764 ft | 244 kts | 214° |
| 2026-05-05 20:46 | 40.29669 | -3.10537 | 8543 ft | 243 kts | 214° |
| 2026-05-05 20:46 | 40.28224 | -3.11688 | 8336 ft | 243 kts | 214° |
| 2026-05-05 20:46 | 40.26867 | -3.12978 | 8093 ft | 240 kts | 232° |
| 2026-05-05 20:46 | 40.26194 | -3.14905 | 7908 ft | 233 kts | 263° |
| 2026-05-05 20:47 | 40.26201 | -3.17001 | 7730 ft | 231 kts | 279° |
| 2026-05-05 20:47 | 40.26472 | -3.19063 | 7529 ft | 232 kts | 281° |
| 2026-05-05 20:47 | 40.26769 | -3.21141 | 7314 ft | 231 kts | 281° |
| 2026-05-05 20:47 | 40.27054 | -3.23176 | 7157 ft | 223 kts | 281° |
| 2026-05-05 20:48 | 40.27327 | -3.25139 | 6935 ft | 215 kts | 281° |
| 2026-05-05 20:48 | 40.27581 | -3.27024 | 6749 ft | 204 kts | 281° |
| 2026-05-05 20:48 | 40.27820 | -3.28817 | 6537 ft | 195 kts | 281° |
| 2026-05-05 20:48 | 40.28045 | -3.30525 | 6374 ft | 188 kts | 281° |
| 2026-05-05 20:49 | 40.28281 | -3.32182 | 6180 ft | 180 kts | 288° |
| 2026-05-05 20:49 | 40.28924 | -3.33497 | 6071 ft | 171 kts | 312° |
| 2026-05-05 20:49 | 40.29715 | -3.34704 | 5908 ft | 176 kts | 310° |
| 2026-05-05 20:49 | 40.30502 | -3.35926 | 5752 ft | 175 kts | 311° |
| 2026-05-05 20:50 | 40.31321 | -3.37085 | 5589 ft | 173 kts | 317° |
| 2026-05-05 20:50 | 40.32219 | -3.38118 | 5438 ft | 171 kts | 321° |
| 2026-05-05 20:50 | 40.33144 | -3.39101 | 5398 ft | 168 kts | 322° |
| 2026-05-05 20:50 | 40.34077 | -3.40065 | 5216 ft | 175 kts | 322° |
| 2026-05-05 20:51 | 40.35035 | -3.41046 | 4999 ft | 175 kts | 323° |
| 2026-05-05 20:51 | 40.35976 | -3.42008 | 4767 ft | 167 kts | 323° |
| 2026-05-05 20:51 | 40.36866 | -3.42917 | 4534 ft | 157 kts | 323° |
| 2026-05-05 20:51 | 40.37722 | -3.43791 | 4338 ft | 155 kts | 323° |
| 2026-05-05 20:52 | 40.38565 | -3.44651 | 4174 ft | 152 kts | 323° |
| 2026-05-05 20:52 | 40.39403 | -3.45505 | 3927 ft | 152 kts | 323° |
| 2026-05-05 20:52 | 40.40244 | -3.46364 | 3722 ft | 154 kts | 323° |
| 2026-05-05 20:52 | 40.41071 | -3.47208 | 3496 ft | 146 kts | 323° |
| 2026-05-05 20:53 | 40.41856 | -3.48014 | 3288 ft | 147 kts | 323° |
| 2026-05-05 20:53 | 40.42650 | -3.48826 | 3038 ft | 145 kts | 321° |
| 2026-05-05 20:53 | 40.43461 | -3.49650 | 2894 ft | 150 kts | 322° |
| 2026-05-05 20:53 | 40.44293 | -3.50503 | 2793 ft | 146 kts | 321° |
| 2026-05-05 20:54 | 40.45107 | -3.51335 | 2541 ft | 151 kts | 320° |
| 2026-05-05 20:54 | 40.45911 | -3.52154 | 2221 ft | 146 kts | 321° |
| 2026-05-05 20:54 | 40.46714 | -3.52973 | 2088 ft | 142 kts | 321° |
| 2026-05-05 20:54 | 40.47501 | -3.53760 | 1950 ft | 140 kts | 321° |
| 2026-05-05 20:55 | 40.48190 | -3.54461 | 1955 ft | 106 kts | 322° |
| 2026-05-05 20:55 | 40.48637 | -3.54912 | 1968 ft | 49 kts | 323° |
| 2026-05-05 20:55 | 40.48879 | -3.55162 | 1976 ft | 47 kts | 322° |
| 2026-05-05 20:55 | 40.49112 | -3.55410 | 1982 ft | 40 kts | 313° |
| 2026-05-05 20:56 | 40.49230 | -3.55649 | 1984 ft | 15 kts | 291° |
| 2026-05-05 20:56 | 40.49256 | -3.55736 | 1986 ft | 7 kts | 292° |
| 2026-05-05 20:56 | 40.49277 | -3.55799 | 1985 ft | 9 kts | 293° |
| 2026-05-05 20:56 | 40.49300 | -3.55895 | 1986 ft | 13 kts | 276° |
| 2026-05-05 20:57 | 40.49303 | -3.56030 | 1981 ft | 16 kts | 271° |
| 2026-05-05 20:57 | 40.49300 | -3.56192 | 1979 ft | 15 kts | 265° |
| 2026-05-05 20:57 | 40.49213 | -3.56247 | 1971 ft | 16 kts | 180° |
| 2026-05-05 20:57 | 40.49097 | -3.56248 | 1968 ft | 18 kts | 180° |
| 2026-05-05 20:58 | 40.48962 | -3.56247 | 1965 ft | 21 kts | 179° |
| 2026-05-05 20:58 | 40.48864 | -3.56315 | 1962 ft | 15 kts | 262° |
| 2026-05-05 20:58 | 40.48864 | -3.56457 | 1959 ft | 8 kts | 270° |
| 2026-05-05 20:58 | 40.48885 | -3.56535 | 1958 ft | 11 kts | 327° |
| 2026-05-05 20:59 | 40.48965 | -3.56546 | 1957 ft | 12 kts | 360° |
| 2026-05-05 20:59 | 40.49042 | -3.56547 | 1958 ft | 6 kts | 359° |
| 2026-05-05 20:59 | 40.49088 | -3.56547 | 1958 ft | 8 kts | 0° |
| 2026-05-05 20:59 | 40.49119 | -3.56555 | 1957 ft | 4 kts | 309° |
| 2026-05-05 21:00 | 40.49122 | -3.56603 | 1956 ft | 7 kts | 272° |
| 2026-05-05 21:00 | 40.49124 | -3.56651 | 1954 ft | 0 kts | 273° |